KAUS - Austin/Bergstrom Int, TX, US

Issued at 0522 UTC 26 May 2019
Updated at 0908 UTC 26 May 2019
Potential Impact None Slight Moderate High
Time0853Z 26/10Z 26/11Z 26/12Z 26/13Z 26/14Z 26/15Z 26/16Z 26/17Z 26/18Z 26/19Z 26/20Z 26/21Z 26/22Z>>
Type OBS PRVL PRVL PRVL PRVL PRVL PRVL PRVL PRVL PRVL PRVL PRVL PRVL PRVL
VIS 10 >6 >6 >6 >6 >6 >6 >6 >6 >6 >6 >6 >6 >6
CIG 19 8 8 8 15 15 15 35 35 35 35 35 250 250
Cover BKN OVC OVC OVC BKN BKN BKN BKN BKN BKN BKN BKN BKN BKN
FltCat MVFR IFR IFR IFR MVFR MVFR MVFR VFR VFR VFR VFR VFR VFR VFR
WX -- -- -- -- -- -- -- -- -- -- -- -- -- --
WDir 160 160 160 160 160 160 160 170 170 170 170 170 150 150
WSpd 8 8 8 8 8 8 8 15 15 15 15 15 12 12
WGst -- -- -- -- -- -- -- -- -- -- -- -- -- --
Raw TAF
KAUS 260522Z 2606/2712 16010KT P6SM SCT060
  FM260630 16008KT P6SM BKN015
  FM260900 16008KT P6SM OVC008
  FM261300 16008KT P6SM BKN015
  FM261600 17015KT P6SM BKN035
  FM262100 15012KT P6SM SCT050 BKN250
  FM270600 17010KT P6SM BKN015


Raw METAR
KAUS 260853Z 16008KT 10SM SCT014 BKN019 BKN025 24/22 A3000 RMK AO2 SLP147 T02440222 58006
KAUS 260834Z 16008KT 10SM SCT013 BKN019 24/22 A3000 RMK AO2 T02440222
KAUS 260753Z 16008KT 10SM SCT018 SCT025 24/22 A3001 RMK AO2 SLP150 T02440217
KAUS 260708Z 17007KT 10SM SCT015 BKN021 24/22 A3001 RMK AO2 T02440222
KAUS 260653Z COR 17006KT 10SM BKN015 BKN021 BKN028 24/22 A3001 RMK AO2 SLP151 T02440222

METAR Board
Radar Display
Forecast Discussion
For situational awareness. Not to be used for flight planning purposes.